Crystal — WDJ2406 — position and weather

sailwx.info

Track history (hours):
 
Tides and Currents Weather Stations Pressure Air Temp Water Temp Dewpoint Dewpoint Depression Visibility Wind Speed Wind Dir Waves Ship Positions

Crystal

Owner: Open Oceans LLC, San Diego, CA. More information available from US FCC via Universal Licensing System and Coast Guard Vessel Documentation Center.

Last reported at 2018-Apr-08 23:55 UTC. Time now 2018-Jun-20 15:15 UTC.
Position N 32°44' W 117°23'.
Warning: this ship's position is months out of date.

MMSI: 369197000.

Date/timePositionNaut miles runAvg speedWind from/ knotsBaromVisibWave heightAir tempDewpointWater temp
2018-Apr-08 23:55N 32°44' W 117°23'512.2
2018-Apr-08 23:30N 32°47' W 117°27'612.4
2018-Apr-08 23:00N 32°51' W 117°33'911.8
2018-Apr-08 22:17N 32°56' W 117°41'311.9
2018-Apr-08 22:00N 32°58' W 117°44'611.8
2018-Apr-08 21:30N 33°02' W 117°49'1 0.0
2018-Apr-07 10:14N 33°02' W 117°50'2 9.1
2018-Apr-07 10:00N 33°01' W 117°48'5 9.0
2018-Apr-07 09:30N 32°58' W 117°44'5 9.4
2018-Apr-07 09:00N 32°55' W 117°40'5 9.3
2018-Apr-07 08:29N 32°52' W 117°35'5 9.4
2018-Apr-07 08:00N 32°49' W 117°31'5 9.6
2018-Apr-07 07:30N 32°46' W 117°27'5 9.3
2018-Apr-07 06:58N 32°43' W 117°22'  
Track history (hours):
 
Tides and Currents Weather Stations Pressure Air Temp Water Temp Dewpoint Dewpoint Depression Visibility Wind Speed Wind Dir Waves Ship Positions

Crystal

Owner: Open Oceans LLC, San Diego, CA. More information available from US FCC via Universal Licensing System and Coast Guard Vessel Documentation Center.

Last reported at 2018-Apr-08 23:55 UTC. Time now 2018-Jun-20 15:15 UTC.
Position N 32°44' W 117°23'.
Warning: this ship's position is months out of date.

MMSI: 369197000.

Date/timePositionNaut miles runAvg speedWind from/ knotsBaromVisibWave heightAir tempDewpointWater temp
2018-Apr-08 23:55N 32°44' W 117°23'512.2
2018-Apr-08 23:30N 32°47' W 117°27'612.4
2018-Apr-08 23:00N 32°51' W 117°33'911.8
2018-Apr-08 22:17N 32°56' W 117°41'311.9
2018-Apr-08 22:00N 32°58' W 117°44'611.8
2018-Apr-08 21:30N 33°02' W 117°49'1 0.0
2018-Apr-07 10:14N 33°02' W 117°50'2 9.1
2018-Apr-07 10:00N 33°01' W 117°48'5 9.0
2018-Apr-07 09:30N 32°58' W 117°44'5 9.4
2018-Apr-07 09:00N 32°55' W 117°40'5 9.3
2018-Apr-07 08:29N 32°52' W 117°35'5 9.4
2018-Apr-07 08:00N 32°49' W 117°31'5 9.6
2018-Apr-07 07:30N 32°46' W 117°27'5 9.3
2018-Apr-07 06:58N 32°43' W 117°22'  

Dump ship's entire track history